Terminal Aerodrome Forecast
Issued by NWS

Home | Current Version | Previous Version | Text Only | Print | Product List | Glossary Off
Versions: 1 2 3 4 5 6 7 8 9 10 11 12

000
FTUS43 KGRB 232300
TAFAUW
TAF
KAUW 232320Z 2400/2424 28007KT P6SM SKC
     FM240100 VRB03KT P6SM SKC
     FM240600 VRB03KT P6SM BKN200
     FM241500 14008KT P6SM BKN090
     FM242200 12009KT P6SM VCSH SCT035 OVC050=

USA.gov is the U.S. government's official web portal to all federal, state and local government web resources and services.